Time;durP1;ratioP1;P1;durP2;ratioP2;P2;SDS_P1;SDS_P2;PMS_P1;PMS_P2;Temp;Humidity;BMP_temperature;BMP_pressure;BME280_temperature;BME280_humidity;BME280_pressure;Samples;Min_cycle;Max_cycle;Signal;HPM_P1;HPM_P2
2021/12/18 00:01:32;;;;;;;0.20;0.20;;;21.90;48.40;;;;;;5053575;28;44416;-63
2021/12/18 00:04:04;;;;;;;0.50;0.28;;;21.90;48.40;;;;;;5058253;28;43715;-63
2021/12/18 00:06:32;;;;;;;1.55;0.20;;;21.90;48.40;;;;;;5036939;28;45119;-62
2021/12/18 00:09:00;;;;;;;0.38;0.38;;;21.90;48.40;;;;;;5053358;28;43672;-63
2021/12/18 00:11:28;;;;;;;0.38;0.30;;;21.90;48.40;;;;;;5024020;28;43547;-63
2021/12/18 00:13:56;;;;;;;0.20;0.20;;;21.90;48.40;;;;;;5038500;28;43591;-62
2021/12/18 00:16:24;;;;;;;0.20;0.20;;;21.90;48.40;;;;;;5052597;28;44955;-63
2021/12/18 00:18:54;;;;;;;0.20;0.20;;;21.90;48.40;;;;;;5044621;28;44725;-63
2021/12/18 00:21:21;;;;;;;0.20;0.20;;;21.90;48.40;;;;;;5045069;28;44780;-63
2021/12/18 00:23:49;;;;;;;0.17;0.17;;;21.80;48.40;;;;;;5047807;28;43615;-62
2021/12/18 00:26:18;;;;;;;0.15;0.10;;;21.80;48.40;;;;;;5051011;28;43802;-63
2021/12/18 00:28:47;;;;;;;0.38;0.35;;;21.80;48.40;;;;;;5046336;28;44162;-63
2021/12/18 00:31:15;;;;;;;0.13;0.13;;;21.80;48.40;;;;;;5050562;28;44785;-63
2021/12/18 00:33:43;;;;;;;0.20;0.20;;;21.80;48.40;;;;;;5045985;28;43585;-63
2021/12/18 00:36:11;;;;;;;0.30;0.30;;;21.80;48.40;;;;;;5053737;28;43618;-62
2021/12/18 00:38:40;;;;;;;0.30;0.30;;;21.80;48.40;;;;;;5048755;28;43969;-63
2021/12/18 00:41:27;;;;;;;0.38;0.38;;;21.80;48.40;;;;;;5049458;28;43629;-62
2021/12/18 00:44:03;;;;;;;0.63;0.45;;;21.80;48.40;;;;;;5045883;28;43652;-63
2021/12/18 00:46:34;;;;;;;0.10;0.10;;;21.80;48.50;;;;;;5042306;28;45117;-63
2021/12/18 00:49:08;;;;;;;0.20;0.20;;;21.80;48.50;;;;;;5047836;28;44805;-63
2021/12/18 00:51:35;;;;;;;0.80;0.20;;;21.70;48.40;;;;;;5046687;28;43571;-63
2021/12/18 00:54:03;;;;;;;0.20;0.20;;;21.70;48.50;;;;;;5049057;28;44870;-63
2021/12/18 00:56:31;;;;;;;0.25;0.25;;;21.70;48.50;;;;;;5051905;28;44790;-63
2021/12/18 00:58:59;;;;;;;0.30;0.30;;;21.70;48.40;;;;;;5050831;28;43731;-62
2021/12/18 01:01:28;;;;;;;0.45;0.22;;;21.70;48.40;;;;;;5051706;28;43581;-63
2021/12/18 01:03:56;;;;;;;0.13;0.13;;;21.70;48.40;;;;;;5050877;28;43875;-62
2021/12/18 01:06:25;;;;;;;0.17;0.17;;;21.70;48.40;;;;;;5050093;28;43886;-62
2021/12/18 01:08:56;;;;;;;0.20;0.20;;;21.70;48.50;;;;;;5050611;28;43744;-63
2021/12/18 01:11:33;;;;;;;0.20;0.20;;;21.70;48.40;;;;;;5035152;28;43614;-63
2021/12/18 01:22:39;;;;;;;0.30;0.30;;;21.60;48.40;;;;;;5055145;28;43798;-63
2021/12/18 01:25:09;;;;;;;0.10;0.10;;;21.60;48.50;;;;;;5051085;28;43535;-63
2021/12/18 01:27:36;;;;;;;0.15;0.15;;;21.60;48.50;;;;;;5036420;28;44079;-63
2021/12/18 01:30:07;;;;;;;0.20;0.20;;;21.60;48.50;;;;;;5055492;28;43626;-62
2021/12/18 01:32:36;;;;;;;0.10;0.10;;;21.60;48.50;;;;;;5056650;28;43529;-63
2021/12/18 01:35:04;;;;;;;0.00;0.00;;;21.50;48.50;;;;;;5054464;28;44177;-62
2021/12/18 01:37:32;;;;;;;0.10;0.10;;;21.50;48.50;;;;;;5056721;28;44072;-62
2021/12/18 01:39:59;;;;;;;0.10;0.10;;;21.50;48.50;;;;;;5049925;28;43583;-62
2021/12/18 01:53:36;;;;;;;0.10;0.10;;;21.50;48.50;;;;;;5013392;28;43562;-63
2021/12/18 01:56:04;;;;;;;0.10;0.10;;;21.50;48.60;;;;;;5051190;28;43539;-62
2021/12/18 01:58:33;;;;;;;0.20;0.20;;;21.50;48.60;;;;;;5057700;28;44710;-63
2021/12/18 02:01:03;;;;;;;0.10;0.10;;;21.40;48.50;;;;;;5031138;28;44913;-62
2021/12/18 02:03:32;;;;;;;0.00;0.00;;;21.40;48.60;;;;;;5049358;28;43579;-63
2021/12/18 02:06:00;;;;;;;0.10;0.10;;;21.40;48.50;;;;;;5044795;28;43658;-62
2021/12/18 02:08:30;;;;;;;0.10;0.10;;;21.40;48.60;;;;;;5051560;28;45262;-63
2021/12/18 02:11:08;;;;;;;0.10;0.10;;;21.40;48.60;;;;;;5052334;28;43698;-63
2021/12/18 02:13:59;;;;;;;0.90;0.25;;;21.40;48.60;;;;;;5044369;28;43555;-63
2021/12/18 02:19:46;;;;;;;0.10;0.10;;;21.40;48.60;;;;;;5047619;28;43795;-62
2021/12/18 02:22:15;;;;;;;;;;;21.40;48.60;;;;;;5034905;28;44732;-63
2021/12/18 02:24:43;;;;;;;0.20;0.20;;;21.40;48.60;;;;;;5048089;28;43802;-63
2021/12/18 02:27:11;;;;;;;0.10;0.10;;;21.30;48.70;;;;;;5053594;28;43576;-62
2021/12/18 02:29:41;;;;;;;0.70;0.10;;;21.30;48.60;;;;;;5050547;28;43799;-63
2021/12/18 02:32:10;;;;;;;0.10;0.10;;;21.30;48.60;;;;;;5050552;28;43684;-62
2021/12/18 02:34:40;;;;;;;0.08;0.08;;;21.30;48.60;;;;;;5049393;28;43527;-62
2021/12/18 02:37:10;;;;;;;0.10;0.10;;;21.30;48.60;;;;;;5051951;28;43582;-62
2021/12/18 02:42:10;;;;;;;0.10;0.10;;;21.30;48.70;;;;;;5048862;28;43669;-63
2021/12/18 02:44:39;;;;;;;0.20;0.20;;;21.20;48.60;;;;;;5051599;28;44793;-63
2021/12/18 02:47:08;;;;;;;0.10;0.10;;;21.30;48.60;;;;;;5051911;28;43644;-63
2021/12/18 02:49:41;;;;;;;0.10;0.10;;;21.30;48.60;;;;;;5033422;28;43586;-63
2021/12/18 02:52:08;;;;;;;1.08;0.10;;;21.30;48.70;;;;;;5051111;28;43684;-63
2021/12/18 02:54:39;;;;;;;0.00;0.00;;;21.20;48.60;;;;;;5054072;28;43609;-63
2021/12/18 02:57:07;;;;;;;0.20;0.20;;;21.30;48.70;;;;;;5053475;28;43556;-62
2021/12/18 02:59:50;;;;;;;0.00;0.00;;;21.30;48.70;;;;;;5019099;28;43847;-63
2021/12/18 03:02:20;;;;;;;0.10;0.10;;;21.30;48.70;;;;;;5052469;28;43659;-63
2021/12/18 03:04:53;;;;;;;0.10;0.10;;;21.20;48.60;;;;;;5058469;28;44123;-63
2021/12/18 03:07:23;;;;;;;0.20;0.20;;;21.20;48.70;;;;;;5027966;28;43723;-62
2021/12/18 03:25:39;;;;;;;0.10;0.10;;;21.10;48.70;;;;;;5047851;28;44787;-63
2021/12/18 03:28:08;;;;;;;0.20;0.20;;;21.20;48.80;;;;;;5057649;28;43601;-62
2021/12/18 03:30:37;;;;;;;0.47;0.22;;;21.20;48.80;;;;;;5053340;28;44766;-63
2021/12/18 03:33:05;;;;;;;0.13;0.13;;;21.20;48.80;;;;;;5049417;28;43670;-63
2021/12/18 03:35:32;;;;;;;0.15;0.15;;;21.10;48.70;;;;;;5056868;28;43636;-63
2021/12/18 03:38:00;;;;;;;0.20;0.20;;;21.10;48.70;;;;;;5057892;28;43674;-62
2021/12/18 03:40:28;;;;;;;0.55;0.20;;;21.10;48.80;;;;;;5050388;28;44712;-63
2021/12/18 03:42:55;;;;;;;0.13;0.13;;;21.10;48.80;;;;;;5058265;28;43780;-62
2021/12/18 03:45:23;;;;;;;0.10;0.10;;;21.10;48.80;;;;;;5054419;28;44868;-63
2021/12/18 03:47:51;;;;;;;0.20;0.20;;;21.10;48.90;;;;;;5049688;28;43597;-62
2021/12/18 03:50:20;;;;;;;0.47;0.47;;;21.10;48.90;;;;;;5050512;28;43882;-62
2021/12/18 03:52:49;;;;;;;0.22;0.22;;;21.10;48.80;;;;;;5053273;28;44886;-62
2021/12/18 03:55:17;;;;;;;0.13;0.13;;;21.10;48.80;;;;;;5051475;28;43597;-63
2021/12/18 03:57:44;;;;;;;0.30;0.28;;;21.00;48.80;;;;;;5047503;28;43515;-63
2021/12/18 04:00:14;;;;;;;0.20;0.20;;;21.00;48.80;;;;;;5048141;28;44151;-62
2021/12/18 04:02:44;;;;;;;0.30;0.28;;;21.10;48.80;;;;;;5047991;28;43618;-63
2021/12/18 04:05:12;;;;;;;0.13;0.13;;;21.00;48.80;;;;;;5046677;28;44716;-63
2021/12/18 04:07:44;;;;;;;;;;;21.00;48.70;;;;;;5052813;28;43545;-62
2021/12/18 04:10:16;;;;;;;0.20;0.20;;;21.00;48.80;;;;;;5044944;28;45003;-63
2021/12/18 04:12:43;;;;;;;0.20;0.20;;;21.00;48.90;;;;;;5048222;28;43572;-63
2021/12/18 04:15:11;;;;;;;0.85;0.10;;;21.00;48.90;;;;;;5039326;28;43579;-62
2021/12/18 04:17:39;;;;;;;0.22;0.10;;;21.00;48.90;;;;;;5043013;28;43867;-62
2021/12/18 04:20:08;;;;;;;0.25;0.25;;;21.00;48.90;;;;;;5050258;28;44925;-63
2021/12/18 04:22:35;;;;;;;0.57;0.30;;;21.00;48.90;;;;;;5051732;28;44118;-63
2021/12/18 04:25:03;;;;;;;0.45;0.30;;;21.00;48.90;;;;;;5049695;28;43530;-62
2021/12/18 04:27:31;;;;;;;0.20;0.20;;;21.00;48.90;;;;;;5052742;28;43556;-63
2021/12/18 04:29:58;;;;;;;0.22;0.22;;;21.00;48.90;;;;;;5050553;28;44047;-62
2021/12/18 04:32:26;;;;;;;0.20;0.20;;;21.00;48.90;;;;;;5048925;28;43681;-62
2021/12/18 04:34:53;;;;;;;0.20;0.20;;;21.00;48.90;;;;;;5048137;28;43554;-62
2021/12/18 04:37:23;;;;;;;0.25;0.25;;;21.00;48.90;;;;;;5052893;28;43626;-63
2021/12/18 04:39:52;;;;;;;0.10;0.10;;;20.90;48.80;;;;;;5049970;28;44036;-63
2021/12/18 04:42:20;;;;;;;0.30;0.30;;;20.90;48.90;;;;;;5054016;28;44445;-63
2021/12/18 04:44:48;;;;;;;0.43;0.43;;;20.90;48.90;;;;;;5049475;28;43636;-63
2021/12/18 04:47:15;;;;;;;0.25;0.22;;;20.90;48.90;;;;;;5052730;28;43600;-63
2021/12/18 04:49:43;;;;;;;0.35;0.20;;;20.90;48.90;;;;;;5051355;28;43954;-62
2021/12/18 04:52:10;;;;;;;0.40;0.22;;;21.00;48.90;;;;;;5056472;28;43633;-62
2021/12/18 04:54:37;;;;;;;0.30;0.30;;;21.00;48.90;;;;;;5030595;28;43533;-62
2021/12/18 04:57:05;;;;;;;0.40;0.30;;;20.90;48.90;;;;;;5054887;28;43721;-63
2021/12/18 04:59:34;;;;;;;0.20;0.20;;;20.90;48.90;;;;;;5057115;28;44696;-63
2021/12/18 05:02:02;;;;;;;1.90;0.22;;;20.90;48.90;;;;;;5053122;28;43611;-62
2021/12/18 05:04:29;;;;;;;0.30;0.30;;;20.90;49.10;;;;;;5058162;28;43521;-63
2021/12/18 05:06:57;;;;;;;0.50;0.30;;;20.90;49.60;;;;;;5059457;28;43799;-63
2021/12/18 05:09:24;;;;;;;0.30;0.30;;;20.90;48.90;;;;;;5053284;28;44105;-63
2021/12/18 05:11:52;;;;;;;0.60;0.30;;;20.90;48.90;;;;;;5059651;28;43557;-63
2021/12/18 05:14:20;;;;;;;0.32;0.32;;;20.90;49.00;;;;;;5056142;28;43498;-63
2021/12/18 05:16:48;;;;;;;0.32;0.17;;;20.90;49.00;;;;;;5049410;28;43643;-63
2021/12/18 05:19:15;;;;;;;0.45;0.30;;;20.90;48.90;;;;;;5017785;28;44206;-63
2021/12/18 05:21:43;;;;;;;0.40;0.40;;;20.90;48.90;;;;;;5052117;28;43571;-63
2021/12/18 05:24:13;;;;;;;0.55;0.30;;;20.90;49.00;;;;;;5044823;28;43617;-63
2021/12/18 05:26:41;;;;;;;0.93;0.37;;;20.80;48.90;;;;;;5041422;28;43606;-62
2021/12/18 05:29:08;;;;;;;0.40;0.30;;;20.90;49.00;;;;;;5050631;28;44957;-63
2021/12/18 05:31:36;;;;;;;0.30;0.30;;;20.80;48.90;;;;;;5057664;28;43559;-63
2021/12/18 05:34:04;;;;;;;0.52;0.32;;;20.80;49.00;;;;;;5057098;28;43491;-62
2021/12/18 05:36:36;;;;;;;0.35;0.30;;;20.80;49.00;;;;;;5060836;28;43626;-63
2021/12/18 05:39:10;;;;;;;0.95;0.47;;;20.80;49.00;;;;;;5049060;28;44996;-63
2021/12/18 05:41:38;;;;;;;0.38;0.35;;;20.80;49.00;;;;;;5046309;28;43561;-63
2021/12/18 05:44:07;;;;;;;0.60;0.40;;;20.80;49.00;;;;;;5052205;28;43529;-63
2021/12/18 05:46:35;;;;;;;0.30;0.30;;;20.80;49.00;;;;;;5048621;28;43626;-62
2021/12/18 05:49:03;;;;;;;0.82;0.45;;;20.80;49.10;;;;;;5029097;28;44298;-63
2021/12/18 05:51:32;;;;;;;0.55;0.30;;;20.80;49.10;;;;;;5050243;28;44116;-63
2021/12/18 05:54:00;;;;;;;0.80;0.47;;;20.80;49.00;;;;;;5049459;28;43551;-62
2021/12/18 05:56:28;;;;;;;0.47;0.30;;;20.70;49.10;;;;;;5049175;28;43578;-63
2021/12/18 05:58:56;;;;;;;0.63;0.43;;;20.70;49.00;;;;;;5047779;28;44691;-62
2021/12/18 06:01:24;;;;;;;0.43;0.43;;;20.80;49.10;;;;;;5046484;28;43585;-63
2021/12/18 06:03:52;;;;;;;0.57;0.38;;;20.80;49.10;;;;;;5042931;28;43571;-63
2021/12/18 06:06:21;;;;;;;0.30;0.30;;;20.70;49.10;;;;;;5050629;28;43577;-62
2021/12/18 06:08:50;;;;;;;0.60;0.40;;;20.70;49.10;;;;;;5053362;28;44261;-63
2021/12/18 06:11:20;;;;;;;1.55;0.50;;;20.70;49.10;;;;;;5046670;28;43648;-63
2021/12/18 06:13:50;;;;;;;0.32;0.32;;;20.70;49.10;;;;;;5044738;28;43619;-62
2021/12/18 06:16:19;;;;;;;0.88;0.52;;;20.70;49.10;;;;;;5051018;28;44794;-63
2021/12/18 06:18:50;;;;;;;1.85;0.32;;;20.70;49.20;;;;;;5027722;28;44702;-63
2021/12/18 06:21:19;;;;;;;0.50;0.50;;;20.70;49.20;;;;;;5049204;28;43638;-63
2021/12/18 06:23:51;;;;;;;0.82;0.40;;;20.70;49.10;;;;;;5053462;28;43494;-63
2021/12/18 06:26:20;;;;;;;1.13;0.30;;;20.70;49.20;;;;;;5051784;28;43545;-63
2021/12/18 06:28:48;;;;;;;0.82;0.50;;;20.70;49.20;;;;;;5049677;28;43744;-63
2021/12/18 06:31:36;;;;;;;0.45;0.45;;;20.70;49.20;;;;;;5051667;28;43646;-63
2021/12/18 06:34:05;;;;;;;0.85;0.65;;;20.60;49.20;;;;;;5050867;28;43601;-63
2021/12/18 06:36:32;;;;;;;0.40;0.30;;;20.70;49.30;;;;;;5038006;28;43563;-62
2021/12/18 06:39:00;;;;;;;0.43;0.40;;;20.70;49.20;;;;;;5054975;28;43682;-63
2021/12/18 06:41:27;;;;;;;0.82;0.40;;;20.60;49.20;;;;;;5050298;28;43622;-63
2021/12/18 06:43:55;;;;;;;0.50;0.50;;;20.70;49.30;;;;;;5057037;28;43515;-63
2021/12/18 06:46:23;;;;;;;0.47;0.40;;;20.70;49.30;;;;;;5049933;28;43723;-63
2021/12/18 06:48:50;;;;;;;0.52;0.52;;;20.60;49.20;;;;;;5054007;28;43764;-63
2021/12/18 06:51:22;;;;;;;0.57;0.45;;;20.70;49.20;;;;;;5037310;28;43614;-63
2021/12/18 06:53:49;;;;;;;0.88;0.63;;;20.70;49.30;;;;;;5051952;28;43632;-63
2021/12/18 06:56:17;;;;;;;1.38;0.50;;;20.60;49.20;;;;;;5051967;28;43572;-62
2021/12/18 06:58:45;;;;;;;1.95;0.50;;;20.60;49.20;;;;;;5053576;28;44644;-63
2021/12/18 07:01:12;;;;;;;0.47;0.40;;;20.70;49.20;;;;;;5053312;28;43546;-63
2021/12/18 07:03:45;;;;;;;0.88;0.50;;;20.60;49.20;;;;;;5053846;28;43608;-63
2021/12/18 07:06:12;;;;;;;1.00;0.52;;;20.60;49.20;;;;;;5058784;28;43566;-62
2021/12/18 07:08:40;;;;;;;0.82;0.50;;;20.60;49.20;;;;;;5055583;28;43792;-63
2021/12/18 07:11:07;;;;;;;0.88;0.60;;;20.60;49.20;;;;;;5055440;28;43636;-62
2021/12/18 07:13:35;;;;;;;1.65;0.50;;;20.60;49.20;;;;;;5058293;28;43526;-63
2021/12/18 07:16:02;;;;;;;1.00;0.65;;;20.70;49.30;;;;;;5031833;28;45717;-63
2021/12/18 07:18:30;;;;;;;1.60;0.50;;;20.70;49.20;;;;;;5038616;28;44961;-63
2021/12/18 07:20:58;;;;;;;2.63;0.70;;;20.70;49.20;;;;;;5045455;28;43601;-63
2021/12/18 07:23:25;;;;;;;1.65;0.80;;;20.70;49.20;;;;;;5054358;28;43521;-63
2021/12/18 07:25:53;;;;;;;0.70;0.50;;;20.70;49.10;;;;;;5035969;28;43564;-63
2021/12/18 07:28:20;;;;;;;0.80;0.50;;;20.70;49.10;;;;;;5055452;28;44663;-64
2021/12/18 07:30:48;;;;;;;0.80;0.60;;;20.70;49.00;;;;;;5052029;28;43563;-63
2021/12/18 07:33:16;;;;;;;1.20;0.60;;;20.80;49.00;;;;;;5048491;28;43530;-63
2021/12/18 07:35:43;;;;;;;0.40;0.38;;;20.70;49.00;;;;;;5054495;28;43655;-63
2021/12/18 07:38:11;;;;;;;0.80;0.70;;;20.80;49.00;;;;;;5036842;28;44207;-62
2021/12/18 07:40:39;;;;;;;0.60;0.60;;;20.80;49.00;;;;;;5050880;28;43697;-63
2021/12/18 07:43:06;;;;;;;0.88;0.50;;;20.80;49.00;;;;;;5045627;28;43559;-63
2021/12/18 07:45:34;;;;;;;0.80;0.50;;;20.80;48.90;;;;;;5046425;28;43594;-63
2021/12/18 07:48:03;;;;;;;1.35;0.63;;;20.80;48.90;;;;;;5046938;28;44066;-63
2021/12/18 07:50:32;;;;;;;0.60;0.60;;;20.80;48.90;;;;;;5049737;28;43753;-63
2021/12/18 07:52:59;;;;;;;0.73;0.68;;;20.90;48.90;;;;;;5046632;28;43547;-63
2021/12/18 07:55:28;;;;;;;0.93;0.60;;;20.80;48.90;;;;;;5049515;28;43651;-63
2021/12/18 07:57:56;;;;;;;2.25;0.65;;;20.90;48.90;;;;;;5048942;28;44703;-63
2021/12/18 08:00:24;;;;;;;0.68;0.52;;;20.90;48.90;;;;;;5049615;28;43604;-63
2021/12/18 08:02:51;;;;;;;0.50;0.40;;;20.90;48.90;;;;;;5050389;28;43637;-63
2021/12/18 08:05:19;;;;;;;0.50;0.40;;;20.90;48.90;;;;;;5049400;28;43625;-64
2021/12/18 08:07:46;;;;;;;1.40;0.60;;;20.90;48.80;;;;;;5029053;28;46400;-63
2021/12/18 08:10:15;;;;;;;0.95;0.55;;;20.90;48.80;;;;;;5052582;28;43717;-63
2021/12/18 08:12:43;;;;;;;0.50;0.50;;;20.90;48.80;;;;;;5048840;28;43608;-63
2021/12/18 08:15:11;;;;;;;1.77;0.82;;;20.90;48.80;;;;;;5049977;28;44039;-64
2021/12/18 08:17:39;;;;;;;0.85;0.65;;;20.90;48.80;;;;;;5047841;28;44791;-63
2021/12/18 08:20:09;;;;;;;0.73;0.60;;;21.00;49.50;;;;;;5029659;28;43578;-63
2021/12/18 08:22:36;;;;;;;0.52;0.50;;;21.00;48.80;;;;;;5049467;28;43498;-62
2021/12/18 08:25:06;;;;;;;0.47;0.47;;;21.00;48.80;;;;;;5048167;28;43561;-63
2021/12/18 08:27:34;;;;;;;1.15;0.70;;;21.00;48.80;;;;;;5058854;28;43809;-63
2021/12/18 08:30:02;;;;;;;0.65;0.63;;;21.00;48.80;;;;;;5049351;28;44788;-62
2021/12/18 08:32:30;;;;;;;1.13;0.70;;;21.10;48.80;;;;;;5037697;28;43608;-63
2021/12/18 08:34:57;;;;;;;0.70;0.50;;;21.10;48.90;;;;;;5058856;28;43793;-63
2021/12/18 08:37:25;;;;;;;1.75;0.60;;;21.10;48.80;;;;;;5059246;28;43803;-63
2021/12/18 08:39:52;;;;;;;1.70;0.70;;;21.20;48.80;;;;;;5055850;28;43561;-63
2021/12/18 08:42:20;;;;;;;1.85;0.77;;;21.20;49.50;;;;;;5062164;28;43614;-63
2021/12/18 08:44:47;;;;;;;1.25;0.70;;;21.20;48.80;;;;;;5050907;28;43568;-63
2021/12/18 08:47:16;;;;;;;0.93;0.70;;;21.20;48.80;;;;;;5054776;28;43885;-63
2021/12/18 08:49:44;;;;;;;0.90;0.65;;;21.20;48.70;;;;;;5055075;28;44106;-63
2021/12/18 08:52:11;;;;;;;0.90;0.60;;;21.20;48.70;;;;;;5052954;28;43555;-63
2021/12/18 08:54:39;;;;;;;1.10;0.70;;;21.20;48.70;;;;;;5051527;28;43557;-63
2021/12/18 08:57:09;;;;;;;0.50;0.40;;;21.20;48.70;;;;;;5061087;28;43953;-63
2021/12/18 08:59:38;;;;;;;0.88;0.50;;;21.30;48.70;;;;;;5053346;28;43632;-63
2021/12/18 09:02:10;;;;;;;0.85;0.70;;;21.30;48.70;;;;;;5053658;28;43940;-63
2021/12/18 09:04:38;;;;;;;1.30;0.77;;;21.30;48.70;;;;;;5060549;28;43843;-63
2021/12/18 09:07:08;;;;;;;1.15;0.60;;;21.30;48.70;;;;;;5061668;28;43888;-63
2021/12/18 09:09:38;;;;;;;0.63;0.50;;;21.30;49.30;;;;;;5055274;28;43661;-63
2021/12/18 09:12:09;;;;;;;1.20;0.70;;;21.30;48.60;;;;;;5055026;28;43642;-63
2021/12/18 09:14:36;;;;;;;2.10;0.77;;;21.40;48.70;;;;;;5055352;28;43599;-63
2021/12/18 09:17:04;;;;;;;1.10;0.82;;;21.40;48.70;;;;;;5057360;28;43782;-63
2021/12/18 09:19:32;;;;;;;0.63;0.60;;;21.40;48.60;;;;;;5057842;28;43603;-62
2021/12/18 09:21:59;;;;;;;1.00;0.63;;;21.40;48.60;;;;;;5039735;28;43562;-62
2021/12/18 09:24:27;;;;;;;2.15;0.98;;;21.40;48.50;;;;;;5050888;28;43542;-62
2021/12/18 09:26:55;;;;;;;0.75;0.75;;;21.40;48.60;;;;;;5048361;28;43803;-62
2021/12/18 09:29:22;;;;;;;0.75;0.65;;;21.40;48.60;;;;;;5049523;28;43529;-62
2021/12/18 09:31:49;;;;;;;1.30;0.68;;;21.50;48.60;;;;;;5031066;28;43554;-62
2021/12/18 09:34:17;;;;;;;1.17;0.80;;;21.50;48.70;;;;;;5056799;28;43564;-62
2021/12/18 09:36:45;;;;;;;1.20;0.60;;;21.50;48.60;;;;;;5046124;28;44879;-63
2021/12/18 09:39:14;;;;;;;0.75;0.75;;;21.50;48.60;;;;;;5047268;28;43608;-62
2021/12/18 09:41:46;;;;;;;0.80;0.43;;;21.50;48.60;;;;;;5048008;28;43511;-62
2021/12/18 09:44:14;;;;;;;0.70;0.50;;;21.50;48.60;;;;;;5049416;28;43510;-62
2021/12/18 09:46:42;;;;;;;2.55;0.70;;;21.50;48.70;;;;;;5053066;28;44661;-62
2021/12/18 09:49:10;;;;;;;0.70;0.70;;;21.50;48.70;;;;;;5051723;28;44001;-62
2021/12/18 09:51:37;;;;;;;0.70;0.60;;;21.50;48.70;;;;;;5051729;28;43494;-62
2021/12/18 09:54:05;;;;;;;1.17;0.82;;;21.50;48.70;;;;;;5055148;28;43811;-62
2021/12/18 09:56:33;;;;;;;0.65;0.65;;;21.50;48.80;;;;;;5055743;28;44780;-62
2021/12/18 09:59:00;;;;;;;1.50;0.70;;;21.50;48.80;;;;;;5049711;28;43665;-62
2021/12/18 10:01:28;;;;;;;0.57;0.55;;;21.50;48.90;;;;;;5053842;28;43633;-62
2021/12/18 10:03:58;;;;;;;1.25;0.90;;;21.50;48.90;;;;;;5054320;28;43498;-62
2021/12/18 10:06:44;;;;;;;1.02;0.60;;;21.50;48.80;;;;;;5052597;28;44782;-62
2021/12/18 10:09:16;;;;;;;1.60;0.68;;;21.60;48.90;;;;;;5052001;28;44742;-62
2021/12/18 10:11:53;;;;;;;1.40;0.90;;;21.60;48.90;;;;;;5055433;28;44720;-62
2021/12/18 10:14:35;;;;;;;1.52;0.57;;;21.60;48.90;;;;;;5056618;28;43548;-62
2021/12/18 10:17:03;;;;;;;1.17;0.55;;;21.60;48.90;;;;;;5046371;28;44282;-63
2021/12/18 10:19:34;;;;;;;1.25;0.70;;;21.60;48.90;;;;;;5054067;28;44098;-62
2021/12/18 10:22:05;;;;;;;1.95;0.85;;;21.60;48.90;;;;;;5024021;28;43934;-62
2021/12/18 10:24:35;;;;;;;0.70;0.70;;;21.60;48.90;;;;;;5048510;28;43573;-62
2021/12/18 10:27:17;;;;;;;1.40;0.90;;;21.60;49.00;;;;;;5056181;28;45026;-62
2021/12/18 10:29:46;;;;;;;0.95;0.70;;;21.60;49.00;;;;;;5053326;28;43523;-62
2021/12/18 10:32:20;;;;;;;1.63;0.70;;;21.60;49.00;;;;;;5056164;28;43568;-62
2021/12/18 10:34:56;;;;;;;1.70;0.80;;;21.60;49.00;;;;;;5038995;28;43716;-62
2021/12/18 10:37:27;;;;;;;1.52;0.70;;;21.60;49.10;;;;;;5043446;28;44969;-62
2021/12/18 10:39:58;;;;;;;1.75;0.98;;;21.60;49.00;;;;;;5058068;28;43893;-62
2021/12/18 10:42:42;;;;;;;2.63;0.90;;;21.70;49.00;;;;;;5053862;28;43594;-62
2021/12/18 10:45:17;;;;;;;1.13;0.90;;;21.70;49.00;;;;;;5053156;28;43707;-62
2021/12/18 10:47:47;;;;;;;1.75;1.00;;;21.70;49.00;;;;;;5053942;28;44907;-62
2021/12/18 10:50:28;;;;;;;1.90;0.60;;;21.70;49.00;;;;;;5049780;28;43513;-62
2021/12/18 10:53:09;;;;;;;1.30;0.98;;;21.70;48.90;;;;;;5049974;28;44012;-62
2021/12/18 10:55:41;;;;;;;2.50;0.90;;;21.70;48.90;;;;;;5054832;28;43591;-62
2021/12/18 10:58:11;;;;;;;0.98;0.70;;;21.70;48.90;;;;;;5057059;28;43579;-62
2021/12/18 11:00:47;;;;;;;1.05;0.63;;;21.80;49.00;;;;;;5061863;28;43572;-62
2021/12/18 11:03:17;;;;;;;2.03;0.85;;;21.80;48.90;;;;;;5054071;28;43543;-62
2021/12/18 11:06:04;;;;;;;2.38;0.85;;;21.80;49.00;;;;;;5058446;28;43638;-62
2021/12/18 11:08:36;;;;;;;1.20;0.65;;;21.80;49.00;;;;;;5043406;28;44091;-62
2021/12/18 11:13:38;;;;;;;1.33;0.70;;;21.90;49.00;;;;;;5047273;28;43707;-62
2021/12/18 11:13:53;;;;;;;1.70;0.82;;;21.90;49.00;;;;;;5049748;28;43534;-62
2021/12/18 11:16:22;;;;;;;2.67;0.82;;;21.80;49.00;;;;;;5020254;28;43584;-63
2021/12/18 11:18:50;;;;;;;2.08;0.90;;;21.90;49.20;;;;;;5046366;28;43995;-62
2021/12/18 11:21:18;;;;;;;2.70;0.95;;;21.80;49.20;;;;;;5046356;28;43651;-62
2021/12/18 11:23:54;;;;;;;1.45;0.85;;;21.90;49.30;;;;;;5025629;28;43592;-62
2021/12/18 11:26:23;;;;;;;2.25;1.00;;;21.80;49.20;;;;;;5051438;28;43661;-62
2021/12/18 11:28:52;;;;;;;1.38;0.85;;;21.90;49.20;;;;;;5048788;28;44696;-62
2021/12/18 11:31:20;;;;;;;1.48;1.10;;;21.90;49.10;;;;;;5049439;28;43510;-62
2021/12/18 11:33:48;;;;;;;3.20;1.08;;;21.90;49.20;;;;;;5052635;28;43761;-62
2021/12/18 11:36:16;;;;;;;1.75;1.10;;;22.00;49.20;;;;;;5048722;28;43750;-61
2021/12/18 11:38:45;;;;;;;1.27;1.17;;;22.00;49.10;;;;;;5049261;28;43777;-62
2021/12/18 11:41:18;;;;;;;1.45;1.20;;;22.00;49.00;;;;;;5051927;28;43716;-62
2021/12/18 11:43:47;;;;;;;2.33;1.20;;;22.10;49.20;;;;;;5049167;28;43637;-63
2021/12/18 11:46:39;;;;;;;2.67;1.20;;;22.10;49.10;;;;;;5049460;28;43615;-62
2021/12/18 11:49:11;;;;;;;2.33;1.30;;;22.10;49.10;;;;;;5050866;28;44394;-62
2021/12/18 11:51:39;;;;;;;2.15;1.10;;;22.10;49.00;;;;;;5051200;28;43776;-61
2021/12/18 11:54:49;;;;;;;2.10;1.27;;;22.10;49.10;;;;;;5052594;28;43707;-62
2021/12/18 11:57:35;;;;;;;2.40;1.40;;;22.10;49.00;;;;;;5034624;28;43530;-63
2021/12/18 12:00:25;;;;;;;1.38;1.05;;;22.20;49.10;;;;;;5049859;28;43780;-62
2021/12/18 12:02:55;;;;;;;2.30;1.30;;;22.20;49.10;;;;;;5034500;28;43744;-62
2021/12/18 12:05:45;;;;;;;1.20;1.10;;;22.20;49.20;;;;;;5036526;28;43573;-62
2021/12/18 12:08:32;;;;;;;1.33;1.10;;;22.20;49.10;;;;;;5039228;28;43688;-62
2021/12/18 12:11:23;;;;;;;2.10;1.33;;;22.20;49.00;;;;;;5049717;28;43756;-62
2021/12/18 12:14:06;;;;;;;1.10;1.02;;;22.30;49.10;;;;;;5053067;28;43563;-62
2021/12/18 12:16:45;;;;;;;1.98;1.40;;;22.30;49.00;;;;;;5055122;28;43606;-62
2021/12/18 12:19:18;;;;;;;2.35;1.23;;;22.30;48.90;;;;;;5031211;28;44633;-62
2021/12/18 12:21:50;;;;;;;2.22;1.20;;;22.30;48.90;;;;;;5052975;28;44665;-62
2021/12/18 12:24:20;;;;;;;2.45;1.20;;;22.40;48.90;;;;;;5047053;28;43626;-62
2021/12/18 12:26:49;;;;;;;1.17;1.08;;;22.40;48.90;;;;;;5048879;28;43548;-62
2021/12/18 12:29:18;;;;;;;1.02;0.93;;;22.40;48.90;;;;;;5058194;28;43656;-62
2021/12/18 12:32:12;;;;;;;1.23;1.10;;;22.40;48.90;;;;;;5050904;28;44437;-62
2021/12/18 12:34:40;;;;;;;0.95;0.80;;;22.50;48.90;;;;;;5050715;28;43706;-61
2021/12/18 12:37:31;;;;;;;1.80;1.38;;;22.50;48.80;;;;;;5057897;28;43556;-62
2021/12/18 12:40:09;;;;;;;1.75;1.20;;;22.60;48.80;;;;;;5046372;28;43671;-61
2021/12/18 12:42:39;;;;;;;2.03;1.10;;;22.50;48.70;;;;;;5055019;28;43747;-62
2021/12/18 12:45:15;;;;;;;1.25;1.00;;;22.60;48.70;;;;;;5045859;28;43662;-62
2021/12/18 12:47:54;;;;;;;1.30;1.20;;;22.60;48.70;;;;;;5052047;28;43616;-62
2021/12/18 12:50:29;;;;;;;3.13;1.40;;;22.60;48.70;;;;;;5051628;28;43673;-62
2021/12/18 12:53:06;;;;;;;1.55;1.20;;;22.60;48.70;;;;;;5046715;28;43785;-62
2021/12/18 12:55:42;;;;;;;3.72;1.55;;;22.70;48.80;;;;;;5045692;28;43931;-62
2021/12/18 12:58:20;;;;;;;2.13;1.20;;;22.70;48.70;;;;;;5046629;28;43652;-62
2021/12/18 13:01:08;;;;;;;2.05;1.20;;;22.70;48.70;;;;;;5045028;28;43635;-62
2021/12/18 13:03:43;;;;;;;1.85;1.20;;;22.70;48.70;;;;;;5050773;28;44073;-62
2021/12/18 13:06:16;;;;;;;1.67;1.27;;;22.70;48.70;;;;;;5044548;28;43630;-62
2021/12/18 13:08:46;;;;;;;1.90;1.17;;;22.70;48.60;;;;;;5049998;28;43680;-62
2021/12/18 13:11:21;;;;;;;2.53;1.00;;;22.70;48.70;;;;;;5045618;28;43736;-62
2021/12/18 13:13:50;;;;;;;2.97;1.63;;;22.80;48.60;;;;;;5052543;28;44681;-62
2021/12/18 13:16:20;;;;;;;2.47;1.20;;;22.70;48.60;;;;;;5055431;28;43599;-62
2021/12/18 13:18:51;;;;;;;3.57;1.13;;;22.70;48.60;;;;;;5055213;28;44305;-62
2021/12/18 13:21:20;;;;;;;2.53;1.20;;;22.80;48.60;;;;;;5053496;28;43688;-62
2021/12/18 13:23:49;;;;;;;2.17;1.20;;;22.80;48.50;;;;;;5052162;28;44040;-61
2021/12/18 13:26:27;;;;;;;1.85;1.17;;;22.80;48.60;;;;;;5025492;28;44613;-62
2021/12/18 13:29:19;;;;;;;3.50;1.60;;;22.80;48.70;;;;;;5051600;28;43596;-62
2021/12/18 13:31:58;;;;;;;3.05;1.50;;;22.80;48.60;;;;;;5053154;28;43609;-62
2021/12/18 13:34:33;;;;;;;4.13;1.50;;;22.80;48.60;;;;;;5052475;28;45684;-62
2021/12/18 13:37:07;;;;;;;2.80;1.48;;;22.80;48.50;;;;;;5034251;28;43658;-62
2021/12/18 13:39:41;;;;;;;2.58;1.35;;;22.80;48.50;;;;;;5056349;28;43575;-63
2021/12/18 13:42:13;;;;;;;2.92;1.35;;;22.80;48.50;;;;;;5058339;28;43758;-62
2021/12/18 13:44:52;;;;;;;2.95;1.30;;;22.80;48.60;;;;;;5052765;28;43880;-62
2021/12/18 13:47:24;;;;;;;3.47;1.10;;;22.80;48.50;;;;;;5058673;28;43588;-62